<?xml version="1.0" encoding="UTF-8" standalone="no" ?>
<gpx xmlns="http://www.topografix.com/GPX/1/1" xmlns:xsi="http://www.w3.org/2001/XMLSchema-instance" xsi:schemaLocation="http://www.topografix.com/GPX/1/1 http://www.topografix.com/GPX/1/1/gpx.xsd" version="1.1" creator="VisuGPX - https://www.visugpx.com">
  <metadata>
    <name>Trail Lalleyriat-FermeRetord</name>
  </metadata>
  <trk>
    <name><![CDATA[Trail Lalleyriat-FermeRetord]]></name>
    <extensions>
      <line xmlns="http://www.topografix.com/GPX/gpx_style/0/2">
        <color>0000FF</color>
        <opacity>0.4</opacity>
        <width>4</width>
      </line>
    </extensions>
    <trkseg>
      <trkpt lat="46.15082" lon="5.71176">
        <ele>839.6</ele>
        <time>2022-04-28T09:30:52.911Z</time>
      </trkpt>
      <trkpt lat="46.1507" lon="5.71184">
        <ele>839.2</ele>
      </trkpt>
      <trkpt lat="46.15057" lon="5.712">
        <ele>838.8</ele>
        <time>2022-04-28T09:31:04.063Z</time>
      </trkpt>
      <trkpt lat="46.15044" lon="5.71224">
        <ele>838.8</ele>
        <time>2022-04-28T09:31:45.959Z</time>
      </trkpt>
      <trkpt lat="46.15055" lon="5.71288">
        <ele>838.1</ele>
      </trkpt>
      <trkpt lat="46.15057" lon="5.71321">
        <ele>838</ele>
      </trkpt>
      <trkpt lat="46.15067" lon="5.71356">
        <ele>838.5</ele>
        <time>2022-04-28T09:31:53.009Z</time>
      </trkpt>
      <trkpt lat="46.15082" lon="5.71393">
        <ele>838</ele>
        <time>2022-04-28T09:32:03.537Z</time>
      </trkpt>
      <trkpt lat="46.15093" lon="5.71439">
        <ele>838.5</ele>
        <time>2022-04-28T09:32:15.056Z</time>
      </trkpt>
      <trkpt lat="46.15091" lon="5.71478">
        <ele>838.7</ele>
        <time>2022-04-28T09:32:45.927Z</time>
      </trkpt>
      <trkpt lat="46.15097" lon="5.71494">
        <ele>838.5</ele>
      </trkpt>
      <trkpt lat="46.15095" lon="5.71515">
        <ele>838.6</ele>
      </trkpt>
      <trkpt lat="46.15102" lon="5.71539">
        <ele>838.3</ele>
        <time>2022-04-28T09:33:57.667Z</time>
      </trkpt>
      <trkpt lat="46.15092" lon="5.71593">
        <ele>838.2</ele>
      </trkpt>
      <trkpt lat="46.15097" lon="5.71615">
        <ele>838.6</ele>
      </trkpt>
      <trkpt lat="46.15106" lon="5.71634">
        <ele>838.3</ele>
      </trkpt>
      <trkpt lat="46.15127" lon="5.71651">
        <ele>838.4</ele>
        <time>2022-04-28T09:34:21.256Z</time>
      </trkpt>
      <trkpt lat="46.15131" lon="5.71666">
        <ele>838.6</ele>
        <time>2022-04-28T09:34:41.749Z</time>
      </trkpt>
      <trkpt lat="46.15116" lon="5.71677">
        <ele>840</ele>
      </trkpt>
      <trkpt lat="46.15099" lon="5.71682">
        <ele>842.5</ele>
        <time>2022-04-28T09:34:57.873Z</time>
      </trkpt>
      <trkpt lat="46.15083" lon="5.71692">
        <ele>873.060042</ele>
        <time>2022-04-28T09:35:12.206Z</time>
      </trkpt>
      <trkpt lat="46.15071" lon="5.71696">
        <ele>874.992089</ele>
        <time>2022-04-28T09:35:22.031Z</time>
      </trkpt>
      <trkpt lat="46.15064" lon="5.71707">
        <ele>876.597912</ele>
        <time>2022-04-28T09:35:30.061Z</time>
      </trkpt>
      <trkpt lat="46.15073" lon="5.71764">
        <ele>882.876542</ele>
        <time>2022-04-28T09:36:09.035Z</time>
      </trkpt>
      <trkpt lat="46.15068" lon="5.71846">
        <ele>891.780448</ele>
        <time>2022-04-28T09:37:07.086Z</time>
      </trkpt>
      <trkpt lat="46.15053" lon="5.71884">
        <ele>896.520589</ele>
        <time>2022-04-28T09:37:41.749Z</time>
      </trkpt>
      <trkpt lat="46.15038" lon="5.71899">
        <ele>899.430654</ele>
        <time>2022-04-28T09:37:57.595Z</time>
      </trkpt>
      <trkpt lat="46.15023" lon="5.71907">
        <ele>902.206155</ele>
        <time>2022-04-28T09:38:12.081Z</time>
      </trkpt>
      <trkpt lat="46.14974" lon="5.71909">
        <ele>910.533644</ele>
        <time>2022-04-28T09:38:51.611Z</time>
      </trkpt>
      <trkpt lat="46.14957" lon="5.71916">
        <ele>913.58333</ele>
        <time>2022-04-28T09:39:06.332Z</time>
      </trkpt>
      <trkpt lat="46.1495" lon="5.71928">
        <ele>915.527325</ele>
        <time>2022-04-28T09:39:18.845Z</time>
      </trkpt>
      <trkpt lat="46.14952" lon="5.71945">
        <ele>917.508949</ele>
        <time>2022-04-28T09:39:27.503Z</time>
      </trkpt>
      <trkpt lat="46.14968" lon="5.72008">
        <ele>925.424259</ele>
        <time>2022-04-28T09:40:11.158Z</time>
      </trkpt>
      <trkpt lat="46.14984" lon="5.72142">
        <ele>940.233399</ele>
        <time>2022-04-28T09:41:31.537Z</time>
      </trkpt>
      <trkpt lat="46.15011" lon="5.72212">
        <ele>948.633129</ele>
        <time>2022-04-28T09:42:23.289Z</time>
      </trkpt>
      <trkpt lat="46.15009" lon="5.72231">
        <ele>950.650969</ele>
        <time>2022-04-28T09:42:34.411Z</time>
      </trkpt>
      <trkpt lat="46.14989" lon="5.72233">
        <ele>953.612144</ele>
        <time>2022-04-28T09:42:51.231Z</time>
      </trkpt>
      <trkpt lat="46.14924" lon="5.72204">
        <ele>964.606709</ele>
        <time>2022-04-28T09:43:51.278Z</time>
      </trkpt>
      <trkpt lat="46.14893" lon="5.72217">
        <ele>969.92144</ele>
        <time>2022-04-28T09:44:21.216Z</time>
      </trkpt>
      <trkpt lat="46.14873" lon="5.72207">
        <ele>973.463139</ele>
        <time>2022-04-28T09:44:42.519Z</time>
      </trkpt>
      <trkpt lat="46.14869" lon="5.72173">
        <ele>977.505097</ele>
        <time>2022-04-28T09:45:05.660Z</time>
      </trkpt>
      <trkpt lat="46.14855" lon="5.72147">
        <ele>981.265879</ele>
        <time>2022-04-28T09:45:30.471Z</time>
      </trkpt>
      <trkpt lat="46.14809" lon="5.72128">
        <ele>989.900941</ele>
        <time>2022-04-28T09:46:23.769Z</time>
      </trkpt>
      <trkpt lat="46.14782" lon="5.72125">
        <ele>995.670964</ele>
        <time>2022-04-28T09:47:04.310Z</time>
      </trkpt>
      <trkpt lat="46.14733" lon="5.7209">
        <ele>1007.276225</ele>
        <time>2022-04-28T09:48:14.447Z</time>
      </trkpt>
      <trkpt lat="46.14661" lon="5.72084">
        <ele>1022.512963</ele>
        <time>2022-04-28T09:49:38.519Z</time>
      </trkpt>
      <trkpt lat="46.14658" lon="5.72093">
        <ele>1023.928267</ele>
        <time>2022-04-28T09:49:52.134Z</time>
      </trkpt>
      <trkpt lat="46.14646" lon="5.72095">
        <ele>1025.925167</ele>
        <time>2022-04-28T09:50:03.484Z</time>
      </trkpt>
      <trkpt lat="46.14605" lon="5.72068">
        <ele>1032.219709</ele>
        <time>2022-04-28T09:50:46.823Z</time>
      </trkpt>
      <trkpt lat="46.14548" lon="5.721">
        <ele>1040.897163</ele>
        <time>2022-04-28T09:51:48.231Z</time>
      </trkpt>
      <trkpt lat="46.14549" lon="5.72113">
        <ele>1042.209379</ele>
        <time>2022-04-28T09:51:54.737Z</time>
      </trkpt>
      <trkpt lat="46.14589" lon="5.72169">
        <ele>1050.056207</ele>
        <time>2022-04-28T09:52:35.105Z</time>
      </trkpt>
      <trkpt lat="46.14593" lon="5.72231">
        <ele>1053.976688</ele>
        <time>2022-04-28T09:53:03.059Z</time>
      </trkpt>
      <trkpt lat="46.14602" lon="5.72336">
        <ele>1060.559813</ele>
        <time>2022-04-28T09:53:53.722Z</time>
      </trkpt>
      <trkpt lat="46.14596" lon="5.72353">
        <ele>1061.744735</ele>
        <time>2022-04-28T09:54:03.582Z</time>
      </trkpt>
      <trkpt lat="46.14577" lon="5.72364">
        <ele>1063.594375</ele>
        <time>2022-04-28T09:54:19.995Z</time>
      </trkpt>
      <trkpt lat="46.14493" lon="5.72361">
        <ele>1073.268862</ele>
        <time>2022-04-28T09:55:27.604Z</time>
      </trkpt>
      <trkpt lat="46.14388" lon="5.72292">
        <ele>1087.837759</ele>
        <time>2022-04-28T09:57:10.628Z</time>
      </trkpt>
      <trkpt lat="46.14272" lon="5.7219">
        <ele>1106.121068</ele>
        <time>2022-04-28T09:59:13.024Z</time>
      </trkpt>
      <trkpt lat="46.14242" lon="5.72175">
        <ele>1110.444888</ele>
        <time>2022-04-28T09:59:41.967Z</time>
      </trkpt>
      <trkpt lat="46.14178" lon="5.72211">
        <ele>1118.217454</ele>
        <time>2022-04-28T10:00:40.993Z</time>
      </trkpt>
      <trkpt lat="46.14143" lon="5.72219">
        <ele>1121.868764</ele>
        <time>2022-04-28T10:01:08.750Z</time>
      </trkpt>
      <trkpt lat="46.14091" lon="5.72196">
        <ele>1127.498661</ele>
        <time>2022-04-28T10:01:48.646Z</time>
      </trkpt>
      <trkpt lat="46.14081" lon="5.72177">
        <ele>1129.170138</ele>
        <time>2022-04-28T10:02:00.498Z</time>
      </trkpt>
      <trkpt lat="46.14078" lon="5.72148">
        <ele>1131.275227</ele>
        <time>2022-04-28T10:02:15.565Z</time>
      </trkpt>
      <trkpt lat="46.14052" lon="5.72129">
        <ele>1133.385536</ele>
        <time>2022-04-28T10:02:36.211Z</time>
      </trkpt>
      <trkpt lat="46.13985" lon="5.72139">
        <ele>1137.833688</ele>
        <time>2022-04-28T10:03:22.395Z</time>
      </trkpt>
      <trkpt lat="46.13851" lon="5.72049">
        <ele>1145.317078</ele>
        <time>2022-04-28T10:04:48.874Z</time>
      </trkpt>
      <trkpt lat="46.13819" lon="5.72021">
        <ele>1146.395089</ele>
        <time>2022-04-28T10:05:09.425Z</time>
      </trkpt>
      <trkpt lat="46.13786" lon="5.71992">
        <ele>1147.510478</ele>
        <time>2022-04-28T10:05:29.878Z</time>
      </trkpt>
      <trkpt lat="46.13735" lon="5.71966">
        <ele>1148.823365</ele>
        <time>2022-04-28T10:05:57.460Z</time>
      </trkpt>
      <trkpt lat="46.13715" lon="5.71969">
        <ele>1148.848914</ele>
        <time>2022-04-28T10:06:07.135Z</time>
      </trkpt>
      <trkpt lat="46.13708" lon="5.72002">
        <ele>1148.879879</ele>
        <time>2022-04-28T10:06:18.613Z</time>
      </trkpt>
      <trkpt lat="46.13683" lon="5.72046">
        <ele>1148.930937</ele>
        <time>2022-04-28T10:06:37.617Z</time>
      </trkpt>
      <trkpt lat="46.13654" lon="5.72064">
        <ele>1148.971515</ele>
        <time>2022-04-28T10:06:52.784Z</time>
      </trkpt>
      <trkpt lat="46.13598" lon="5.72069">
        <ele>1149.043192</ele>
        <time>2022-04-28T10:07:19.600Z</time>
      </trkpt>
      <trkpt lat="46.13577" lon="5.72083">
        <ele>1149.118458</ele>
        <time>2022-04-28T10:07:30.857Z</time>
      </trkpt>
      <trkpt lat="46.13488" lon="5.72187">
        <ele>1149.489513</ele>
        <time>2022-04-28T10:08:26.999Z</time>
      </trkpt>
      <trkpt lat="46.13448" lon="5.72212">
        <ele>1149.63053</ele>
        <time>2022-04-28T10:08:48.567Z</time>
      </trkpt>
      <trkpt lat="46.13436" lon="5.72202">
        <ele>1149.675985</ele>
        <time>2022-04-28T10:08:55.152Z</time>
      </trkpt>
      <trkpt lat="46.1338" lon="5.72208">
        <ele>1149.868546</ele>
        <time>2022-04-28T10:09:23.054Z</time>
      </trkpt>
      <trkpt lat="46.13297" lon="5.72188">
        <ele>1150.152877</ele>
        <time>2022-04-28T10:10:03.799Z</time>
      </trkpt>
      <trkpt lat="46.13267" lon="5.72174">
        <ele>1150.254281</ele>
        <time>2022-04-28T10:10:19.319Z</time>
      </trkpt>
      <trkpt lat="46.13232" lon="5.72173">
        <ele>1150.339312</ele>
        <time>2022-04-28T10:10:36.218Z</time>
      </trkpt>
      <trkpt lat="46.13165" lon="5.72155">
        <ele>1150.507105</ele>
        <time>2022-04-28T10:11:09.506Z</time>
      </trkpt>
      <trkpt lat="46.13136" lon="5.72161">
        <ele>1150.580958</ele>
        <time>2022-04-28T10:11:24.186Z</time>
      </trkpt>
      <trkpt lat="46.13075" lon="5.72148">
        <ele>1150.450852</ele>
        <time>2022-04-28T10:11:53.924Z</time>
      </trkpt>
      <trkpt lat="46.1298" lon="5.72117">
        <ele>1149.41671</ele>
        <time>2022-04-28T10:12:40.113Z</time>
      </trkpt>
      <trkpt lat="46.12948" lon="5.72125">
        <ele>1149.068057</ele>
        <time>2022-04-28T10:12:55.409Z</time>
      </trkpt>
      <trkpt lat="46.12886" lon="5.72092">
        <ele>1147.857545</ele>
        <time>2022-04-28T10:13:25.479Z</time>
      </trkpt>
      <trkpt lat="46.12873" lon="5.72143">
        <ele>1146.946511</ele>
        <time>2022-04-28T10:13:39.957Z</time>
      </trkpt>
      <trkpt lat="46.12781" lon="5.72156">
        <ele>1144.70935</ele>
        <time>2022-04-28T10:14:21.811Z</time>
      </trkpt>
      <trkpt lat="46.1276" lon="5.72177">
        <ele>1144.519889</ele>
        <time>2022-04-28T10:14:33.743Z</time>
      </trkpt>
      <trkpt lat="46.12746" lon="5.72229">
        <ele>1144.727545</ele>
        <time>2022-04-28T10:14:51.922Z</time>
      </trkpt>
      <trkpt lat="46.12688" lon="5.72311">
        <ele>1145.166533</ele>
        <time>2022-04-28T10:15:31.529Z</time>
      </trkpt>
      <trkpt lat="46.12683" lon="5.72321">
        <ele>1145.212297</ele>
        <time>2022-04-28T10:15:36.220Z</time>
      </trkpt>
      <trkpt lat="46.12637" lon="5.72416">
        <ele>1146.848778</ele>
        <time>2022-04-28T10:16:19.573Z</time>
      </trkpt>
      <trkpt lat="46.12599" lon="5.72464">
        <ele>1148.53243</ele>
        <time>2022-04-28T10:16:47.967Z</time>
      </trkpt>
      <trkpt lat="46.12501" lon="5.72554">
        <ele>1151.732053</ele>
        <time>2022-04-28T10:17:52.886Z</time>
      </trkpt>
      <trkpt lat="46.12488" lon="5.72591">
        <ele>1152.0177</ele>
        <time>2022-04-28T10:18:08.587Z</time>
      </trkpt>
      <trkpt lat="46.12425" lon="5.72606">
        <ele>1152.644965</ele>
        <time>2022-04-28T10:18:40.875Z</time>
      </trkpt>
      <trkpt lat="46.12404" lon="5.72618">
        <ele>1152.877948</ele>
        <time>2022-04-28T10:18:52.295Z</time>
      </trkpt>
      <trkpt lat="46.12369" lon="5.72613">
        <ele>1153.223043</ele>
        <time>2022-04-28T10:19:08.469Z</time>
      </trkpt>
      <trkpt lat="46.12333" lon="5.72595">
        <ele>1151.790501</ele>
        <time>2022-04-28T10:19:25.622Z</time>
      </trkpt>
      <trkpt lat="46.12307" lon="5.72549">
        <ele>1150.261539</ele>
        <time>2022-04-28T10:19:43.449Z</time>
      </trkpt>
      <trkpt lat="46.1231" lon="5.72514">
        <ele>1149.348632</ele>
        <time>2022-04-28T10:19:54.069Z</time>
      </trkpt>
      <trkpt lat="46.12303" lon="5.72468">
        <ele>1148.142552</ele>
        <time>2022-04-28T10:20:07.934Z</time>
      </trkpt>
      <trkpt lat="46.12281" lon="5.72402">
        <ele>1146.484545</ele>
        <time>2022-04-28T10:20:30.345Z</time>
      </trkpt>
      <trkpt lat="46.12246" lon="5.72381">
        <ele>1146.42187</ele>
        <time>2022-04-28T10:20:47.320Z</time>
      </trkpt>
      <trkpt lat="46.12208" lon="5.72381">
        <ele>1146.360033</ele>
        <time>2022-04-28T10:21:04.761Z</time>
      </trkpt>
      <trkpt lat="46.12117" lon="5.72412">
        <ele>1146.204337</ele>
        <time>2022-04-28T10:21:53.430Z</time>
      </trkpt>
      <trkpt lat="46.12061" lon="5.72454">
        <ele>1147.310122</ele>
        <time>2022-04-28T10:22:28.162Z</time>
      </trkpt>
      <trkpt lat="46.12039" lon="5.72461">
        <ele>1147.745271</ele>
        <time>2022-04-28T10:22:41.100Z</time>
      </trkpt>
      <trkpt lat="46.11993" lon="5.7246">
        <ele>1148.609053</ele>
        <time>2022-04-28T10:23:04.816Z</time>
      </trkpt>
      <trkpt lat="46.11945" lon="5.72472">
        <ele>1149.522471</ele>
        <time>2022-04-28T10:23:28.427Z</time>
      </trkpt>
      <trkpt lat="46.11877" lon="5.72521">
        <ele>1164.374142</ele>
        <time>2022-04-28T10:26:56.269Z</time>
      </trkpt>
      <trkpt lat="46.11928" lon="5.72587">
        <ele>1169.496844</ele>
        <time>2022-04-28T10:27:45.271Z</time>
      </trkpt>
      <trkpt lat="46.11954" lon="5.7263">
        <ele>1172.469463</ele>
        <time>2022-04-28T10:28:13.701Z</time>
      </trkpt>
      <trkpt lat="46.11955" lon="5.72655">
        <ele>1173.807518</ele>
        <time>2022-04-28T10:28:25.647Z</time>
      </trkpt>
      <trkpt lat="46.1189" lon="5.72754">
        <ele>1179.785521</ele>
        <time>2022-04-28T10:29:22.734Z</time>
      </trkpt>
      <trkpt lat="46.11858" lon="5.72785">
        <ele>1181.331849</ele>
        <time>2022-04-28T10:29:45.572Z</time>
      </trkpt>
      <trkpt lat="46.11833" lon="5.72778">
        <ele>1182.383228</ele>
        <time>2022-04-28T10:30:01.065Z</time>
      </trkpt>
      <trkpt lat="46.11757" lon="5.72702">
        <ele>1185.673914</ele>
        <time>2022-04-28T10:30:51.925Z</time>
      </trkpt>
      <trkpt lat="46.11725" lon="5.72651">
        <ele>1185.265048</ele>
        <time>2022-04-28T10:31:15.184Z</time>
      </trkpt>
      <trkpt lat="46.11679" lon="5.72598">
        <ele>1184.763539</ele>
        <time>2022-04-28T10:31:42.461Z</time>
      </trkpt>
      <trkpt lat="46.11622" lon="5.72548">
        <ele>1184.135525</ele>
        <time>2022-04-28T10:32:13.087Z</time>
      </trkpt>
      <trkpt lat="46.11601" lon="5.72541">
        <ele>1183.590118</ele>
        <time>2022-04-28T10:32:22.718Z</time>
      </trkpt>
      <trkpt lat="46.11513" lon="5.7255">
        <ele>1181.372448</ele>
        <time>2022-04-28T10:33:02.056Z</time>
      </trkpt>
      <trkpt lat="46.11505" lon="5.72604">
        <ele>1180.410006</ele>
        <time>2022-04-28T10:33:16.768Z</time>
      </trkpt>
      <trkpt lat="46.1148" lon="5.72663">
        <ele>1179.783379</ele>
        <time>2022-04-28T10:33:35.803Z</time>
      </trkpt>
      <trkpt lat="46.11449" lon="5.72714">
        <ele>1180.064305</ele>
        <time>2022-04-28T10:33:54.843Z</time>
      </trkpt>
      <trkpt lat="46.11364" lon="5.72822">
        <ele>1180.741062</ele>
        <time>2022-04-28T10:34:43.578Z</time>
      </trkpt>
      <trkpt lat="46.11149" lon="5.72427">
        <ele>1192.814439</ele>
        <time>2022-04-28T10:37:57.573Z</time>
      </trkpt>
      <trkpt lat="46.11138" lon="5.72415">
        <ele>1193.302894</ele>
        <time>2022-04-28T10:38:05.129Z</time>
      </trkpt>
      <trkpt lat="46.11097" lon="5.72391">
        <ele>1195.213991</ele>
        <time>2022-04-28T10:38:30.645Z</time>
      </trkpt>
      <trkpt lat="46.11054" lon="5.72349">
        <ele>1197.378534</ele>
        <time>2022-04-28T10:38:59.758Z</time>
      </trkpt>
      <trkpt lat="46.10924" lon="5.72276">
        <ele>1204.209819</ele>
        <time>2022-04-28T10:40:20.645Z</time>
      </trkpt>
      <trkpt lat="46.10856" lon="5.7225">
        <ele>1208.321797</ele>
        <time>2022-04-28T10:41:04.428Z</time>
      </trkpt>
      <trkpt lat="46.10782" lon="5.72236">
        <ele>1213.107556</ele>
        <time>2022-04-28T10:41:53.514Z</time>
      </trkpt>
      <trkpt lat="46.10684" lon="5.72183">
        <ele>1220.912343</ele>
        <time>2022-04-28T10:43:03.050Z</time>
      </trkpt>
      <trkpt lat="46.10596" lon="5.72187">
        <ele>1227.705639</ele>
        <time>2022-04-28T10:44:03.516Z</time>
      </trkpt>
      <trkpt lat="46.1055" lon="5.72264">
        <ele>1233.383644</ele>
        <time>2022-04-28T10:44:50.600Z</time>
      </trkpt>
      <trkpt lat="46.10538" lon="5.72268">
        <ele>1234.400126</ele>
        <time>2022-04-28T10:44:58.918Z</time>
      </trkpt>
      <trkpt lat="46.10483" lon="5.72246">
        <ele>1238.932485</ele>
        <time>2022-04-28T10:45:37.262Z</time>
      </trkpt>
      <trkpt lat="46.10417" lon="5.72243">
        <ele>1244.718651</ele>
        <time>2022-04-28T10:46:29.325Z</time>
      </trkpt>
      <trkpt lat="46.10373" lon="5.72281">
        <ele>1249.256185</ele>
        <time>2022-04-28T10:47:07.168Z</time>
      </trkpt>
      <trkpt lat="46.10335" lon="5.72277">
        <ele>1252.646548</ele>
        <time>2022-04-28T10:47:34.416Z</time>
      </trkpt>
      <trkpt lat="46.10315" lon="5.72248">
        <ele>1255.163842</ele>
        <time>2022-04-28T10:47:54.206Z</time>
      </trkpt>
      <trkpt lat="46.10269" lon="5.72212">
        <ele>1257.641268</ele>
        <time>2022-04-28T10:48:27.920Z</time>
      </trkpt>
      <trkpt lat="46.10247" lon="5.72161">
        <ele>1259.609339</ele>
        <time>2022-04-28T10:48:53.713Z</time>
      </trkpt>
      <trkpt lat="46.10228" lon="5.72144">
        <ele>1260.668488</ele>
        <time>2022-04-28T10:49:07.097Z</time>
      </trkpt>
      <trkpt lat="46.1014" lon="5.72116">
        <ele>1264.256735</ele>
        <time>2022-04-28T10:49:53.347Z</time>
      </trkpt>
      <trkpt lat="46.10106" lon="5.72098">
        <ele>1265.037881</ele>
        <time>2022-04-28T10:50:11.724Z</time>
      </trkpt>
      <trkpt lat="46.09985" lon="5.72109">
        <ele>1267.657597</ele>
        <time>2022-04-28T10:51:15.510Z</time>
      </trkpt>
      <trkpt lat="46.09964" lon="5.72106">
        <ele>1268.303176</ele>
        <time>2022-04-28T10:51:27.097Z</time>
      </trkpt>
      <trkpt lat="46.0992" lon="5.72078">
        <ele>1269.773355</ele>
        <time>2022-04-28T10:51:54.283Z</time>
      </trkpt>
      <trkpt lat="46.09898" lon="5.7207">
        <ele>1270.46297</ele>
        <time>2022-04-28T10:52:06.843Z</time>
      </trkpt>
      <trkpt lat="46.09787" lon="5.72059">
        <ele>1273.300737</ele>
        <time>2022-04-28T10:53:07.318Z</time>
      </trkpt>
      <trkpt lat="46.09724" lon="5.72035">
        <ele>1273.977263</ele>
        <time>2022-04-28T10:53:40.419Z</time>
      </trkpt>
      <trkpt lat="46.09667" lon="5.72034">
        <ele>1274.565788</ele>
        <time>2022-04-28T10:54:08.078Z</time>
      </trkpt>
      <trkpt lat="46.09631" lon="5.71997">
        <ele>1274.880781</ele>
        <time>2022-04-28T10:54:29.247Z</time>
      </trkpt>
      <trkpt lat="46.09517" lon="5.71964">
        <ele>1274.837161</ele>
        <time>2022-04-28T10:55:24.862Z</time>
      </trkpt>
      <trkpt lat="46.09499" lon="5.71968">
        <ele>1274.830074</ele>
        <time>2022-04-28T10:55:34.159Z</time>
      </trkpt>
      <trkpt lat="46.09411" lon="5.72034">
        <ele>1275.12351</ele>
        <time>2022-04-28T10:56:23.492Z</time>
      </trkpt>
      <trkpt lat="46.09351" lon="5.72063">
        <ele>1275.406853</ele>
        <time>2022-04-28T10:56:54.708Z</time>
      </trkpt>
      <trkpt lat="46.09305" lon="5.72106">
        <ele>1275.571176</ele>
        <time>2022-04-28T10:57:21.099Z</time>
      </trkpt>
      <trkpt lat="46.09263" lon="5.7212">
        <ele>1275.145396</ele>
        <time>2022-04-28T10:57:41.957Z</time>
      </trkpt>
      <trkpt lat="46.09236" lon="5.7216">
        <ele>1274.774996</ele>
        <time>2022-04-28T10:57:59.870Z</time>
      </trkpt>
      <trkpt lat="46.09218" lon="5.72175">
        <ele>1274.565352</ele>
        <time>2022-04-28T10:58:09.876Z</time>
      </trkpt>
      <trkpt lat="46.09205" lon="5.72178">
        <ele>1274.435036</ele>
        <time>2022-04-28T10:58:16.068Z</time>
      </trkpt>
      <trkpt lat="46.09159" lon="5.72165">
        <ele>1273.978328</ele>
        <time>2022-04-28T10:58:37.571Z</time>
      </trkpt>
      <trkpt lat="46.0912" lon="5.72163">
        <ele>1274.234002</ele>
        <time>2022-04-28T10:58:55.227Z</time>
      </trkpt>
      <trkpt lat="46.09047" lon="5.72134">
        <ele>1275.252491</ele>
        <time>2022-04-28T10:59:33.617Z</time>
      </trkpt>
      <trkpt lat="46.09007" lon="5.72144">
        <ele>1275.791481</ele>
        <time>2022-04-28T10:59:55.178Z</time>
      </trkpt>
      <trkpt lat="46.08999" lon="5.72157">
        <ele>1275.957592</ele>
        <time>2022-04-28T11:00:01.187Z</time>
      </trkpt>
      <trkpt lat="46.08986" lon="5.72179">
        <ele>1276.229059</ele>
        <time>2022-04-28T11:00:10.298Z</time>
      </trkpt>
      <trkpt lat="46.08966" lon="5.72244">
        <ele>1277.723941</ele>
        <time>2022-04-28T11:00:34.135Z</time>
      </trkpt>
      <trkpt lat="46.08946" lon="5.72287">
        <ele>1278.838886</ele>
        <time>2022-04-28T11:00:50.869Z</time>
      </trkpt>
      <trkpt lat="46.08906" lon="5.72326">
        <ele>1280.383896</ele>
        <time>2022-04-28T11:01:13.855Z</time>
      </trkpt>
      <trkpt lat="46.08886" lon="5.72329">
        <ele>1281.018113</ele>
        <time>2022-04-28T11:01:23.486Z</time>
      </trkpt>
      <trkpt lat="46.08879" lon="5.72336">
        <ele>1281.294179</ele>
        <time>2022-04-28T11:01:27.639Z</time>
      </trkpt>
      <trkpt lat="46.08878" lon="5.72362">
        <ele>1281.847639</ele>
        <time>2022-04-28T11:01:35.786Z</time>
      </trkpt>
      <trkpt lat="46.0889" lon="5.72425">
        <ele>1281.953532</ele>
        <time>2022-04-28T11:01:54.983Z</time>
      </trkpt>
      <trkpt lat="46.08888" lon="5.72461">
        <ele>1281.943018</ele>
        <time>2022-04-28T11:02:05.445Z</time>
      </trkpt>
      <trkpt lat="46.089" lon="5.72498">
        <ele>1281.930921</ele>
        <time>2022-04-28T11:02:19.244Z</time>
      </trkpt>
      <trkpt lat="46.08918" lon="5.72509">
        <ele>1281.923013</ele>
        <time>2022-04-28T11:02:28.145Z</time>
      </trkpt>
      <trkpt lat="46.0896" lon="5.72596">
        <ele>1281.70818</ele>
        <time>2022-04-28T11:03:02.772Z</time>
      </trkpt>
      <trkpt lat="46.08976" lon="5.72608">
        <ele>1281.304376</ele>
        <time>2022-04-28T11:03:11.204Z</time>
      </trkpt>
      <trkpt lat="46.09015" lon="5.72691">
        <ele>1279.726972</ele>
        <time>2022-04-28T11:03:43.491Z</time>
      </trkpt>
      <trkpt lat="46.09049" lon="5.72744">
        <ele>1278.579743</ele>
        <time>2022-04-28T11:04:06.602Z</time>
      </trkpt>
      <trkpt lat="46.0908" lon="5.72767">
        <ele>1277.767313</ele>
        <time>2022-04-28T11:04:22.014Z</time>
      </trkpt>
      <trkpt lat="46.09089" lon="5.72791">
        <ele>1276.904037</ele>
        <time>2022-04-28T11:04:30.180Z</time>
      </trkpt>
      <trkpt lat="46.09095" lon="5.72829">
        <ele>1275.697363</ele>
        <time>2022-04-28T11:04:41.917Z</time>
      </trkpt>
      <trkpt lat="46.09082" lon="5.72844">
        <ele>1274.920969</ele>
        <time>2022-04-28T11:04:49.144Z</time>
      </trkpt>
      <trkpt lat="46.09065" lon="5.72846">
        <ele>1274.159873</ele>
        <time>2022-04-28T11:04:56.645Z</time>
      </trkpt>
      <trkpt lat="46.0906" lon="5.72864">
        <ele>1273.571322</ele>
        <time>2022-04-28T11:05:01.986Z</time>
      </trkpt>
      <trkpt lat="46.09072" lon="5.72883">
        <ele>1272.786501</ele>
        <time>2022-04-28T11:05:09.713Z</time>
      </trkpt>
      <trkpt lat="46.09094" lon="5.72898">
        <ele>1271.677204</ele>
        <time>2022-04-28T11:05:20.135Z</time>
      </trkpt>
      <trkpt lat="46.09118" lon="5.72914">
        <ele>1270.48791</ele>
        <time>2022-04-28T11:05:31.587Z</time>
      </trkpt>
      <trkpt lat="46.09121" lon="5.72909">
        <ele>1270.278584</ele>
        <time>2022-04-28T11:05:33.475Z</time>
      </trkpt>
      <trkpt lat="46.09175" lon="5.72916">
        <ele>1268.885251</ele>
        <time>2022-04-28T11:05:57.188Z</time>
      </trkpt>
      <trkpt lat="46.09661" lon="5.73047">
        <ele>1260.056337</ele>
        <time>2022-04-28T11:09:47.372Z</time>
      </trkpt>
      <trkpt lat="46.09757" lon="5.73073">
        <ele>1259.304071</ele>
        <time>2022-04-28T11:10:33.901Z</time>
      </trkpt>
      <trkpt lat="46.10092" lon="5.73217">
        <ele>1255.440156</ele>
        <time>2022-04-28T11:13:19.625Z</time>
      </trkpt>
      <trkpt lat="46.10147" lon="5.73241">
        <ele>1254.151468</ele>
        <time>2022-04-28T11:13:45.850Z</time>
      </trkpt>
      <trkpt lat="46.10264" lon="5.733">
        <ele>1247.013471</ele>
        <time>2022-04-28T11:14:39.226Z</time>
      </trkpt>
      <trkpt lat="46.10463" lon="5.73382">
        <ele>1228.043119</ele>
        <time>2022-04-28T11:16:00.060Z</time>
      </trkpt>
      <trkpt lat="46.10629" lon="5.73464">
        <ele>1209.027669</ele>
        <time>2022-04-28T11:17:06.857Z</time>
      </trkpt>
      <trkpt lat="46.10673" lon="5.73474">
        <ele>1204.182193</ele>
        <time>2022-04-28T11:17:23.854Z</time>
      </trkpt>
      <trkpt lat="46.10725" lon="5.73456">
        <ele>1199.411581</ele>
        <time>2022-04-28T11:17:45.171Z</time>
      </trkpt>
      <trkpt lat="46.10744" lon="5.73456">
        <ele>1198.109099</ele>
        <time>2022-04-28T11:17:52.815Z</time>
      </trkpt>
      <trkpt lat="46.1076" lon="5.7345">
        <ele>1196.974396</ele>
        <time>2022-04-28T11:17:58.576Z</time>
      </trkpt>
      <trkpt lat="46.1085" lon="5.73475">
        <ele>1190.637507</ele>
        <time>2022-04-28T11:18:31.162Z</time>
      </trkpt>
      <trkpt lat="46.10909" lon="5.73502">
        <ele>1187.332381</ele>
        <time>2022-04-28T11:18:53.398Z</time>
      </trkpt>
      <trkpt lat="46.10993" lon="5.73547">
        <ele>1183.671795</ele>
        <time>2022-04-28T11:19:27.027Z</time>
      </trkpt>
      <trkpt lat="46.11047" lon="5.73545">
        <ele>1181.440683</ele>
        <time>2022-04-28T11:19:47.505Z</time>
      </trkpt>
      <trkpt lat="46.11107" lon="5.73553">
        <ele>1180.227963</ele>
        <time>2022-04-28T11:20:10.600Z</time>
      </trkpt>
      <trkpt lat="46.11111" lon="5.73552">
        <ele>1180.140523</ele>
        <time>2022-04-28T11:20:12.270Z</time>
      </trkpt>
      <trkpt lat="46.11157" lon="5.73554">
        <ele>1179.241453</ele>
        <time>2022-04-28T11:20:29.817Z</time>
      </trkpt>
      <trkpt lat="46.11138" lon="5.73481">
        <ele>1178.169488</ele>
        <time>2022-04-28T11:20:51.242Z</time>
      </trkpt>
      <trkpt lat="46.11138" lon="5.7343">
        <ele>1178.124087</ele>
        <time>2022-04-28T11:21:05.520Z</time>
      </trkpt>
      <trkpt lat="46.11152" lon="5.7336">
        <ele>1178.91329</ele>
        <time>2022-04-28T11:21:27.087Z</time>
      </trkpt>
      <trkpt lat="46.11258" lon="5.73368">
        <ele>1180.56974</ele>
        <time>2022-04-28T11:22:23.171Z</time>
      </trkpt>
      <trkpt lat="46.11345" lon="5.73399">
        <ele>1182.065744</ele>
        <time>2022-04-28T11:23:11.887Z</time>
      </trkpt>
      <trkpt lat="46.11418" lon="5.73446">
        <ele>1183.398115</ele>
        <time>2022-04-28T11:23:52.555Z</time>
      </trkpt>
      <trkpt lat="46.11465" lon="5.73447">
        <ele>1182.936568</ele>
        <time>2022-04-28T11:24:14.936Z</time>
      </trkpt>
      <trkpt lat="46.11493" lon="5.73455">
        <ele>1182.305345</ele>
        <time>2022-04-28T11:24:28.353Z</time>
      </trkpt>
      <trkpt lat="46.11524" lon="5.73444">
        <ele>1181.612065</ele>
        <time>2022-04-28T11:24:42.765Z</time>
      </trkpt>
      <trkpt lat="46.11564" lon="5.73418">
        <ele>1180.638046</ele>
        <time>2022-04-28T11:25:02.543Z</time>
      </trkpt>
      <trkpt lat="46.1158" lon="5.73421">
        <ele>1180.294484</ele>
        <time>2022-04-28T11:25:09.352Z</time>
      </trkpt>
      <trkpt lat="46.11598" lon="5.73437">
        <ele>1179.825273</ele>
        <time>2022-04-28T11:25:18.769Z</time>
      </trkpt>
      <trkpt lat="46.11636" lon="5.73456">
        <ele>1179.242509</ele>
        <time>2022-04-28T11:25:36.353Z</time>
      </trkpt>
      <trkpt lat="46.11698" lon="5.73506">
        <ele>1178.32524</ele>
        <time>2022-04-28T11:26:08.509Z</time>
      </trkpt>
      <trkpt lat="46.11778" lon="5.73546">
        <ele>1177.876721</ele>
        <time>2022-04-28T11:26:50.569Z</time>
      </trkpt>
      <trkpt lat="46.11853" lon="5.73511">
        <ele>1182.335644</ele>
        <time>2022-04-28T11:27:33.621Z</time>
      </trkpt>
      <trkpt lat="46.11913" lon="5.73505">
        <ele>1185.727665</ele>
        <time>2022-04-28T11:28:13.611Z</time>
      </trkpt>
      <trkpt lat="46.11981" lon="5.73499">
        <ele>1190.882109</ele>
        <time>2022-04-28T11:29:09.429Z</time>
      </trkpt>
      <trkpt lat="46.12125" lon="5.73512">
        <ele>1204.167758</ele>
        <time>2022-04-28T11:30:59.059Z</time>
      </trkpt>
      <trkpt lat="46.12362" lon="5.73575">
        <ele>1212.301357</ele>
        <time>2022-04-28T11:33:16.001Z</time>
      </trkpt>
      <trkpt lat="46.12419" lon="5.73564">
        <ele>1212.001156</ele>
        <time>2022-04-28T11:33:42.642Z</time>
      </trkpt>
      <trkpt lat="46.12528" lon="5.7358">
        <ele>1208.982857</ele>
        <time>2022-04-28T11:34:30.595Z</time>
      </trkpt>
      <trkpt lat="46.12655" lon="5.73624">
        <ele>1201.895421</ele>
        <time>2022-04-28T11:35:25.221Z</time>
      </trkpt>
      <trkpt lat="46.12714" lon="5.73654">
        <ele>1199.437916</ele>
        <time>2022-04-28T11:35:52.094Z</time>
      </trkpt>
      <trkpt lat="46.12793" lon="5.73736">
        <ele>1195.678684</ele>
        <time>2022-04-28T11:36:35.080Z</time>
      </trkpt>
      <trkpt lat="46.12841" lon="5.73771">
        <ele>1194.673983</ele>
        <time>2022-04-28T11:37:00.365Z</time>
      </trkpt>
      <trkpt lat="46.12862" lon="5.7378">
        <ele>1194.517655</ele>
        <time>2022-04-28T11:37:11.148Z</time>
      </trkpt>
      <trkpt lat="46.12871" lon="5.7379">
        <ele>1194.441118</ele>
        <time>2022-04-28T11:37:16.395Z</time>
      </trkpt>
      <trkpt lat="46.12902" lon="5.73784">
        <ele>1194.231336</ele>
        <time>2022-04-28T11:37:30.963Z</time>
      </trkpt>
      <trkpt lat="46.1291" lon="5.73769">
        <ele>1194.141741</ele>
        <time>2022-04-28T11:37:37.430Z</time>
      </trkpt>
      <trkpt lat="46.12927" lon="5.73762">
        <ele>1194.016122</ele>
        <time>2022-04-28T11:37:46.146Z</time>
      </trkpt>
      <trkpt lat="46.12959" lon="5.73769">
        <ele>1193.79156</ele>
        <time>2022-04-28T11:38:01.895Z</time>
      </trkpt>
      <trkpt lat="46.13003" lon="5.7376">
        <ele>1192.973902</ele>
        <time>2022-04-28T11:38:23.117Z</time>
      </trkpt>
      <trkpt lat="46.1308" lon="5.73789">
        <ele>1190.894278</ele>
        <time>2022-04-28T11:39:01.142Z</time>
      </trkpt>
      <trkpt lat="46.13102" lon="5.73775">
        <ele>1190.263132</ele>
        <time>2022-04-28T11:39:12.073Z</time>
      </trkpt>
      <trkpt lat="46.13121" lon="5.73771">
        <ele>1189.75774</ele>
        <time>2022-04-28T11:39:20.475Z</time>
      </trkpt>
      <trkpt lat="46.13129" lon="5.73762">
        <ele>1189.483095</ele>
        <time>2022-04-28T11:39:24.911Z</time>
      </trkpt>
      <trkpt lat="46.13127" lon="5.73677">
        <ele>1183.639816</ele>
        <time>2022-04-28T11:39:48.626Z</time>
      </trkpt>
      <trkpt lat="46.13114" lon="5.7359">
        <ele>1175.003639</ele>
        <time>2022-04-28T11:40:12.320Z</time>
      </trkpt>
      <trkpt lat="46.13117" lon="5.73532">
        <ele>1169.433778</ele>
        <time>2022-04-28T11:40:27.539Z</time>
      </trkpt>
      <trkpt lat="46.13105" lon="5.73439">
        <ele>1157.524624</ele>
        <time>2022-04-28T11:40:51.804Z</time>
      </trkpt>
      <trkpt lat="46.13103" lon="5.73377">
        <ele>1146.76857</ele>
        <time>2022-04-28T11:41:08.444Z</time>
      </trkpt>
      <trkpt lat="46.13122" lon="5.73322">
        <ele>1136.435423</ele>
        <time>2022-04-28T11:41:24.437Z</time>
      </trkpt>
      <trkpt lat="46.13148" lon="5.73277">
        <ele>1126.307214</ele>
        <time>2022-04-28T11:41:39.965Z</time>
      </trkpt>
      <trkpt lat="46.13163" lon="5.73274">
        <ele>1122.552258</ele>
        <time>2022-04-28T11:41:46.258Z</time>
      </trkpt>
      <trkpt lat="46.13181" lon="5.73289">
        <ele>1117.380181</ele>
        <time>2022-04-28T11:41:53.944Z</time>
      </trkpt>
      <trkpt lat="46.13221" lon="5.73298">
        <ele>1107.075115</ele>
        <time>2022-04-28T11:42:10.456Z</time>
      </trkpt>
      <trkpt lat="46.13234" lon="5.73307">
        <ele>1103.563109</ele>
        <time>2022-04-28T11:42:16.148Z</time>
      </trkpt>
      <trkpt lat="46.13253" lon="5.7337">
        <ele>1091.470365</ele>
        <time>2022-04-28T11:42:34.963Z</time>
      </trkpt>
      <trkpt lat="46.13318" lon="5.73432">
        <ele>1072.353723</ele>
        <time>2022-04-28T11:43:03.972Z</time>
      </trkpt>
      <trkpt lat="46.13352" lon="5.73449">
        <ele>1065.675876</ele>
        <time>2022-04-28T11:43:17.441Z</time>
      </trkpt>
      <trkpt lat="46.13391" lon="5.73453">
        <ele>1058.370361</ele>
        <time>2022-04-28T11:43:32.100Z</time>
      </trkpt>
      <trkpt lat="46.13405" lon="5.73435">
        <ele>1054.849644</ele>
        <time>2022-04-28T11:43:39.130Z</time>
      </trkpt>
      <trkpt lat="46.13395" lon="5.7341">
        <ele>1051.026593</ele>
        <time>2022-04-28T11:43:46.809Z</time>
      </trkpt>
      <trkpt lat="46.13405" lon="5.73388">
        <ele>1047.778511</ele>
        <time>2022-04-28T11:43:53.336Z</time>
      </trkpt>
      <trkpt lat="46.13426" lon="5.73378">
        <ele>1043.625136</ele>
        <time>2022-04-28T11:44:01.769Z</time>
      </trkpt>
      <trkpt lat="46.13449" lon="5.73382">
        <ele>1040.08077</ele>
        <time>2022-04-28T11:44:10.624Z</time>
      </trkpt>
      <trkpt lat="46.1347" lon="5.73403">
        <ele>1038.409111</ele>
        <time>2022-04-28T11:44:21.312Z</time>
      </trkpt>
      <trkpt lat="46.13493" lon="5.73414">
        <ele>1036.894714</ele>
        <time>2022-04-28T11:44:31.524Z</time>
      </trkpt>
      <trkpt lat="46.13516" lon="5.73411">
        <ele>1035.414987</ele>
        <time>2022-04-28T11:44:40.579Z</time>
      </trkpt>
      <trkpt lat="46.13568" lon="5.7339">
        <ele>1031.923182</ele>
        <time>2022-04-28T11:45:03.559Z</time>
      </trkpt>
      <trkpt lat="46.13615" lon="5.73368">
        <ele>1028.950252</ele>
        <time>2022-04-28T11:45:22.111Z</time>
      </trkpt>
      <trkpt lat="46.13634" lon="5.7335">
        <ele>1028.801384</ele>
        <time>2022-04-28T11:45:31.741Z</time>
      </trkpt>
      <trkpt lat="46.13651" lon="5.73354">
        <ele>1028.683443</ele>
        <time>2022-04-28T11:45:38.993Z</time>
      </trkpt>
      <trkpt lat="46.1368" lon="5.73382">
        <ele>1028.44865</ele>
        <time>2022-04-28T11:45:53.892Z</time>
      </trkpt>
      <trkpt lat="46.13728" lon="5.73426">
        <ele>1028.072331</ele>
        <time>2022-04-28T11:46:17.906Z</time>
      </trkpt>
      <trkpt lat="46.1374" lon="5.73437">
        <ele>1027.977081</ele>
        <time>2022-04-28T11:46:23.511Z</time>
      </trkpt>
      <trkpt lat="46.13755" lon="5.73465">
        <ele>1027.815011</ele>
        <time>2022-04-28T11:46:33.341Z</time>
      </trkpt>
      <trkpt lat="46.13761" lon="5.73502">
        <ele>1027.156361</ele>
        <time>2022-04-28T11:46:43.339Z</time>
      </trkpt>
      <trkpt lat="46.13769" lon="5.73515">
        <ele>1026.76083</ele>
        <time>2022-04-28T11:46:48.179Z</time>
      </trkpt>
      <trkpt lat="46.13786" lon="5.73519">
        <ele>1026.229968</ele>
        <time>2022-04-28T11:46:54.616Z</time>
      </trkpt>
      <trkpt lat="46.1381" lon="5.73506">
        <ele>1025.407847</ele>
        <time>2022-04-28T11:47:04.576Z</time>
      </trkpt>
      <trkpt lat="46.13827" lon="5.73488">
        <ele>1024.772036</ele>
        <time>2022-04-28T11:47:12.373Z</time>
      </trkpt>
      <trkpt lat="46.13847" lon="5.73442">
        <ele>1023.599709</ele>
        <time>2022-04-28T11:47:26.595Z</time>
      </trkpt>
      <trkpt lat="46.13845" lon="5.73425">
        <ele>1023.230076</ele>
        <time>2022-04-28T11:47:31.139Z</time>
      </trkpt>
      <trkpt lat="46.13835" lon="5.73407">
        <ele>1022.711547</ele>
        <time>2022-04-28T11:47:37.396Z</time>
      </trkpt>
      <trkpt lat="46.13843" lon="5.73338">
        <ele>1020.594457</ele>
        <time>2022-04-28T11:47:55.218Z</time>
      </trkpt>
      <trkpt lat="46.13825" lon="5.73272">
        <ele>1018.04612</ele>
        <time>2022-04-28T11:48:13.419Z</time>
      </trkpt>
      <trkpt lat="46.13801" lon="5.7323">
        <ele>1016.078148</ele>
        <time>2022-04-28T11:48:27.264Z</time>
      </trkpt>
      <trkpt lat="46.13799" lon="5.73173">
        <ele>1014.055153</ele>
        <time>2022-04-28T11:48:41.324Z</time>
      </trkpt>
      <trkpt lat="46.13772" lon="5.73129">
        <ele>1011.262235</ele>
        <time>2022-04-28T11:48:56.064Z</time>
      </trkpt>
      <trkpt lat="46.13773" lon="5.73097">
        <ele>1009.320797</ele>
        <time>2022-04-28T11:49:03.788Z</time>
      </trkpt>
      <trkpt lat="46.13812" lon="5.73034">
        <ele>1004.139655</ele>
        <time>2022-04-28T11:49:23.781Z</time>
      </trkpt>
      <trkpt lat="46.13854" lon="5.73024">
        <ele>1000.450431</ele>
        <time>2022-04-28T11:49:37.717Z</time>
      </trkpt>
      <trkpt lat="46.13944" lon="5.72961">
        <ele>990.2887</ele>
        <time>2022-04-28T11:50:10.138Z</time>
      </trkpt>
      <trkpt lat="46.13966" lon="5.72935">
        <ele>987.147731</ele>
        <time>2022-04-28T11:50:19.373Z</time>
      </trkpt>
      <trkpt lat="46.13995" lon="5.72922">
        <ele>983.843047</ele>
        <time>2022-04-28T11:50:29.108Z</time>
      </trkpt>
      <trkpt lat="46.14008" lon="5.72884">
        <ele>980.618941</ele>
        <time>2022-04-28T11:50:38.669Z</time>
      </trkpt>
      <trkpt lat="46.14021" lon="5.72861">
        <ele>978.320925</ele>
        <time>2022-04-28T11:50:45.530Z</time>
      </trkpt>
      <trkpt lat="46.14033" lon="5.72863">
        <ele>976.975435</ele>
        <time>2022-04-28T11:50:49.505Z</time>
      </trkpt>
      <trkpt lat="46.14068" lon="5.72902">
        <ele>971.956165</ele>
        <time>2022-04-28T11:51:04.071Z</time>
      </trkpt>
      <trkpt lat="46.14109" lon="5.72869">
        <ele>966.64151</ele>
        <time>2022-04-28T11:51:19.339Z</time>
      </trkpt>
      <trkpt lat="46.14143" lon="5.72879">
        <ele>962.687665</ele>
        <time>2022-04-28T11:51:30.542Z</time>
      </trkpt>
      <trkpt lat="46.14159" lon="5.72867">
        <ele>960.619841</ele>
        <time>2022-04-28T11:51:36.384Z</time>
      </trkpt>
      <trkpt lat="46.14195" lon="5.72823">
        <ele>955.167494</ele>
        <time>2022-04-28T11:51:51.586Z</time>
      </trkpt>
      <trkpt lat="46.14221" lon="5.72772">
        <ele>949.852555</ele>
        <time>2022-04-28T11:52:05.750Z</time>
      </trkpt>
      <trkpt lat="46.14239" lon="5.72758">
        <ele>947.319556</ele>
        <time>2022-04-28T11:52:12.481Z</time>
      </trkpt>
      <trkpt lat="46.14267" lon="5.72764">
        <ele>943.97306</ele>
        <time>2022-04-28T11:52:21.388Z</time>
      </trkpt>
      <trkpt lat="46.14298" lon="5.72793">
        <ele>939.443548</ele>
        <time>2022-04-28T11:52:33.481Z</time>
      </trkpt>
      <trkpt lat="46.14316" lon="5.72817">
        <ele>936.475497</ele>
        <time>2022-04-28T11:52:41.431Z</time>
      </trkpt>
      <trkpt lat="46.14331" lon="5.72827">
        <ele>934.469932</ele>
        <time>2022-04-28T11:52:46.692Z</time>
      </trkpt>
      <trkpt lat="46.14343" lon="5.7282">
        <ele>932.750774</ele>
        <time>2022-04-28T11:52:51.004Z</time>
      </trkpt>
      <trkpt lat="46.14357" lon="5.72791">
        <ele>929.560227</ele>
        <time>2022-04-28T11:52:58.896Z</time>
      </trkpt>
      <trkpt lat="46.14372" lon="5.72774">
        <ele>927.098681</ele>
        <time>2022-04-28T11:53:05.018Z</time>
      </trkpt>
      <trkpt lat="46.14435" lon="5.72767">
        <ele>918.879385</ele>
        <time>2022-04-28T11:53:25.381Z</time>
      </trkpt>
      <trkpt lat="46.1446" lon="5.72768">
        <ele>915.647767</ele>
        <time>2022-04-28T11:53:33.364Z</time>
      </trkpt>
      <trkpt lat="46.14601" lon="5.72803">
        <ele>893.1232</ele>
        <time>2022-04-28T11:54:19.280Z</time>
      </trkpt>
      <trkpt lat="46.14692" lon="5.72815">
        <ele>878.835806</ele>
        <time>2022-04-28T11:54:48.247Z</time>
      </trkpt>
      <trkpt lat="46.14724" lon="5.72827">
        <ele>874.233837</ele>
        <time>2022-04-28T11:54:58.834Z</time>
      </trkpt>
      <trkpt lat="46.14777" lon="5.72861">
        <ele>866.114522</ele>
        <time>2022-04-28T11:55:17.586Z</time>
      </trkpt>
      <trkpt lat="46.14813" lon="5.72866">
        <ele>861.050289</ele>
        <time>2022-04-28T11:55:29.319Z</time>
      </trkpt>
      <trkpt lat="46.14871" lon="5.72917">
        <ele>855.236066</ele>
        <time>2022-04-28T11:55:51.680Z</time>
      </trkpt>
      <trkpt lat="46.14918" lon="5.72972">
        <ele>852.422667</ele>
        <time>2022-04-28T11:56:12.728Z</time>
      </trkpt>
      <trkpt lat="46.14927" lon="5.72982">
        <ele>851.886448</ele>
        <time>2022-04-28T11:56:17.229Z</time>
      </trkpt>
      <trkpt lat="46.14965" lon="5.72998">
        <ele>850.023338</ele>
        <time>2022-04-28T11:56:32.395Z</time>
      </trkpt>
      <trkpt lat="46.15056" lon="5.72999">
        <ele>851.990772</ele>
        <time>2022-04-28T11:57:14.955Z</time>
      </trkpt>
      <trkpt lat="46.15166" lon="5.72949">
        <ele>858.256104</ele>
        <time>2022-04-28T11:58:22.054Z</time>
      </trkpt>
      <trkpt lat="46.15198" lon="5.72946">
        <ele>858.666844</ele>
        <time>2022-04-28T11:58:38.454Z</time>
      </trkpt>
      <trkpt lat="46.15214" lon="5.72938">
        <ele>858.822117</ele>
        <time>2022-04-28T11:58:46.951Z</time>
      </trkpt>
      <trkpt lat="46.15242" lon="5.7285">
        <ele>859.432962</ele>
        <time>2022-04-28T11:59:16.498Z</time>
      </trkpt>
      <trkpt lat="46.153" lon="5.72855">
        <ele>859.953475</ele>
        <time>2022-04-28T11:59:38.092Z</time>
      </trkpt>
      <trkpt lat="46.15314" lon="5.72824">
        <ele>859.753812</ele>
        <time>2022-04-28T11:59:47.119Z</time>
      </trkpt>
      <trkpt lat="46.15336" lon="5.72709">
        <ele>858.306925</ele>
        <time>2022-04-28T12:00:19.550Z</time>
      </trkpt>
      <trkpt lat="46.15364" lon="5.72634">
        <ele>857.284728</ele>
        <time>2022-04-28T12:00:42.115Z</time>
      </trkpt>
      <trkpt lat="46.15345" lon="5.72628">
        <ele>856.959005</ele>
        <time>2022-04-28T12:00:51.449Z</time>
      </trkpt>
      <trkpt lat="46.15318" lon="5.72607">
        <ele>857.92916</ele>
        <time>2022-04-28T12:01:04.950Z</time>
      </trkpt>
      <trkpt lat="46.15295" lon="5.72561">
        <ele>859.319314</ele>
        <time>2022-04-28T12:01:23.053Z</time>
      </trkpt>
      <trkpt lat="46.1529" lon="5.72512">
        <ele>860.55265</ele>
        <time>2022-04-28T12:01:39.811Z</time>
      </trkpt>
      <trkpt lat="46.15297" lon="5.7248">
        <ele>861.39698</ele>
        <time>2022-04-28T12:01:50.959Z</time>
      </trkpt>
      <trkpt lat="46.15283" lon="5.72456">
        <ele>862.16612</ele>
        <time>2022-04-28T12:02:04.818Z</time>
      </trkpt>
      <trkpt lat="46.15275" lon="5.72413">
        <ele>863.282133</ele>
        <time>2022-04-28T12:02:19.498Z</time>
      </trkpt>
      <trkpt lat="46.15247" lon="5.72322">
        <ele>865.546698</ele>
        <time>2022-04-28T12:02:51.935Z</time>
      </trkpt>
      <trkpt lat="46.15248" lon="5.72301">
        <ele>866.018024</ele>
        <time>2022-04-28T12:02:58.736Z</time>
      </trkpt>
      <trkpt lat="46.1526" lon="5.72286">
        <ele>866.534167</ele>
        <time>2022-04-28T12:03:06.379Z</time>
      </trkpt>
      <trkpt lat="46.1526" lon="5.72268">
        <ele>866.924127</ele>
        <time>2022-04-28T12:03:12.036Z</time>
      </trkpt>
      <trkpt lat="46.15216" lon="5.72161">
        <ele>869.665561</ele>
        <time>2022-04-28T12:03:51.093Z</time>
      </trkpt>
      <trkpt lat="46.15197" lon="5.72126">
        <ele>870.528888</ele>
        <time>2022-04-28T12:04:04.850Z</time>
      </trkpt>
      <trkpt lat="46.15178" lon="5.72067">
        <ele>871.797798</ele>
        <time>2022-04-28T12:04:25.855Z</time>
      </trkpt>
      <trkpt lat="46.15174" lon="5.72031">
        <ele>872.501491</ele>
        <time>2022-04-28T12:04:37.597Z</time>
      </trkpt>
      <trkpt lat="46.15156" lon="5.71951">
        <ele>874.124748</ele>
        <time>2022-04-28T12:05:05.137Z</time>
      </trkpt>
      <trkpt lat="46.15137" lon="5.71894">
        <ele>873.03746</ele>
        <time>2022-04-28T12:05:25.843Z</time>
      </trkpt>
      <trkpt lat="46.1513" lon="5.71871">
        <ele>872.482354</ele>
        <time>2022-04-28T12:05:32.556Z</time>
      </trkpt>
      <trkpt lat="46.15094" lon="5.71778">
        <ele>870.13947</ele>
        <time>2022-04-28T12:05:59.683Z</time>
      </trkpt>
      <trkpt lat="46.15082" lon="5.71725">
        <ele>868.90839</ele>
        <time>2022-04-28T12:06:13.436Z</time>
      </trkpt>
      <trkpt lat="46.15089" lon="5.71697">
        <ele>845.1</ele>
        <time>2022-04-28T12:06:21.911Z</time>
      </trkpt>
      <trkpt lat="46.15099" lon="5.71682">
        <ele>842.5</ele>
        <time>2022-04-28T12:06:27.448Z</time>
      </trkpt>
      <trkpt lat="46.15117" lon="5.71677">
        <ele>839.9</ele>
      </trkpt>
      <trkpt lat="46.15131" lon="5.71666">
        <ele>838.6</ele>
        <time>2022-04-28T12:06:36.076Z</time>
      </trkpt>
      <trkpt lat="46.15127" lon="5.71651">
        <ele>838.4</ele>
        <time>2022-04-28T12:06:45.640Z</time>
      </trkpt>
      <trkpt lat="46.15107" lon="5.71634">
        <ele>838.3</ele>
      </trkpt>
      <trkpt lat="46.15097" lon="5.71615">
        <ele>838.6</ele>
      </trkpt>
      <trkpt lat="46.15092" lon="5.71593">
        <ele>838.2</ele>
      </trkpt>
      <trkpt lat="46.15102" lon="5.71538">
        <ele>838.3</ele>
        <time>2022-04-28T12:06:55.605Z</time>
      </trkpt>
      <trkpt lat="46.15095" lon="5.71515">
        <ele>838.6</ele>
      </trkpt>
      <trkpt lat="46.15097" lon="5.71494">
        <ele>838.5</ele>
      </trkpt>
      <trkpt lat="46.15091" lon="5.71479">
        <ele>838.7</ele>
        <time>2022-04-28T12:07:30.694Z</time>
      </trkpt>
      <trkpt lat="46.15094" lon="5.71438">
        <ele>838.5</ele>
        <time>2022-04-28T12:07:54.252Z</time>
      </trkpt>
      <trkpt lat="46.15082" lon="5.71393">
        <ele>838</ele>
      </trkpt>
      <trkpt lat="46.15067" lon="5.71356">
        <ele>838.5</ele>
        <time>2022-04-28T12:08:03.757Z</time>
      </trkpt>
      <trkpt lat="46.15057" lon="5.71322">
        <ele>838</ele>
      </trkpt>
      <trkpt lat="46.15054" lon="5.71288">
        <ele>838.1</ele>
        <time>2022-04-28T12:08:13.409Z</time>
      </trkpt>
      <trkpt lat="46.15044" lon="5.71224">
        <ele>838.8</ele>
        <time>2022-04-28T12:08:19.766Z</time>
      </trkpt>
      <trkpt lat="46.15058" lon="5.712">
        <ele>838.8</ele>
        <time>2022-04-28T12:09:02.565Z</time>
      </trkpt>
      <trkpt lat="46.1507" lon="5.71184">
        <ele>839.2</ele>
      </trkpt>
      <trkpt lat="46.15082" lon="5.71176">
        <ele>839.6</ele>
        <time>2022-04-28T12:09:14.970Z</time>
      </trkpt>
    </trkseg>
  </trk>
</gpx>